WetterOnline ( https://www.wetteronline.de )

Wetter aktuell Lohmar

Aktuelles Wetter: Königswinter-Heiderhof (147m)

6-stündlich | Neueste Meldungen
Ortszeit Temperatur Wetter
Sa, 24.02. 7:00 5.0° C bewölkt
Sa, 24.02. 1:00 4.3° C bedeckt
Fr, 23.02. 19:00 7.4° C fast wolkenlos
Fr, 23.02. 13:00 7.8° C wolkig
Fr, 23.02. 7:00 3.7° C leicht bewölkt
Fr, 23.02. 1:00 6.0° C leichter Regen
Do, 22.02. 19:00 11.8° C leichter Regen
Do, 22.02. 13:00 12.7° C bewölkt
Ortszeit Temperatur Wetter
Sa, 24.02. 12:00 5.9° C bedeckt
Sa, 24.02. 11:50 5.9° C bedeckt
Sa, 24.02. 11:40 5.6° C bewölkt
Sa, 24.02. 11:30 7.6° C Sprühregen
Sa, 24.02. 11:20 7.6° C Sprühregen
Sa, 24.02. 11:10 6.9° C bewölkt
Sa, 24.02. 11:00 5.8° C bedeckt
Sa, 24.02. 10:30 5.9° C bewölkt
Sa, 24.02. 10:00 5.4° C bewölkt
Sa, 24.02. 9:30 5.5° C bewölkt
Sa, 24.02. 9:00 5.2° C Sprühregen
Ortszeit Relative Feuchte Sichtweite
Sa, 24.02. 7:00 81% >70 km
Sa, 24.02. 1:00 84% >70 km
Fr, 23.02. 19:00 67% 65 km
Fr, 23.02. 13:00 67% >70 km
Fr, 23.02. 7:00 78% >70 km
Fr, 23.02. 1:00 75% 35 km
Do, 22.02. 19:00 80% 40 km
Do, 22.02. 13:00 77% >70 km
Ortszeit Relative Feuchte Sichtweite
Sa, 24.02. 12:00 72% 55 km
Sa, 24.02. 11:50 72% -
Sa, 24.02. 11:40 74% -
Sa, 24.02. 11:30 68% 35 km
Sa, 24.02. 11:20 68% -
Sa, 24.02. 11:10 68% -
Sa, 24.02. 11:00 72% >70 km
Sa, 24.02. 10:30 74% >70 km
Sa, 24.02. 10:00 76% >70 km
Sa, 24.02. 9:30 79% >70 km
Sa, 24.02. 9:00 81% >70 km
Ortszeit Niederschlagsmenge Niederschlagsart
Sa, 24.02. 7:00 0.3 l/m2 in 12 Std. Regen
Sa, 24.02. 1:00 0.3 l/m2 in 6 Std. Regen
Fr, 23.02. 19:00 0.1 l/m2 in 12 Std. Regen
Fr, 23.02. 13:00 0.1 l/m2 in 6 Std. Regen
Fr, 23.02. 7:00 0.3 l/m2 in 12 Std. Regen
Fr, 23.02. 1:00 0.3 l/m2 in 6 Std. Regen
Do, 22.02. 19:00 2 l/m2 in 12 Std. Regen
Do, 22.02. 13:00 0.1 l/m2 in 6 Std. Regen
Ortszeit Niederschlagsmenge Niederschlagsart
Sa, 24.02. 12:00 <0.05 l/m2 in 1 Std. Sprühregen, Niederschlag
Sa, 24.02. 11:50 keine Meldung -
Sa, 24.02. 11:40 keine Meldung -
Sa, 24.02. 11:30 <0.05 l/m2 in 30 Min -
Sa, 24.02. 11:20 keine Meldung -
Sa, 24.02. 11:10 keine Meldung -
Sa, 24.02. 11:00 0.0 l/m2 in 1 Std. -
Sa, 24.02. 10:30 0.0 l/m2 in 30 Min -
Sa, 24.02. 10:00 <0.05 l/m2 in 1 Std. Regen
Sa, 24.02. 9:30 <0.05 l/m2 in 30 Min Schneeregen
Sa, 24.02. 9:00 <0.05 l/m2 in 1 Std. Regen
Ortszeit Stärke Spitze Richtung
km/h Bft. km/h Grad Sektor
Sa, 24.02. 7:00 13 3 28 160° S
Sa, 24.02. 1:00 15 3 37 180° S
Fr, 23.02. 19:00 22 4 43 170° S
Fr, 23.02. 13:00 20 4 50 200° S
Fr, 23.02. 7:00 11 2 50 190° S
Fr, 23.02. 1:00 31 5 78 260° W
Do, 22.02. 19:00 28 4 57 170° S
Do, 22.02. 13:00 20 4 33 180° S
Ortszeit Stärke Spitze Richtung
km/h Bft. km/h Grad Sektor
Sa, 24.02. 12:00 26 4 43 210° SW
Sa, 24.02. 11:50 26 4 - 210° SW
Sa, 24.02. 11:40 28 4 - 200° S
Sa, 24.02. 11:30 26 4 43 210° SW
Sa, 24.02. 11:20 26 4 - 210° SW
Sa, 24.02. 11:10 28 4 - 210° SW
Sa, 24.02. 11:00 29 5 43 210° SW
Sa, 24.02. 10:30 24 4 35 220° SW
Sa, 24.02. 10:00 25 4 36 200° S
Sa, 24.02. 9:30 20 4 30 190° S
Sa, 24.02. 9:00 20 4 30 180° S
Ortszeit Untergrenze Bedeckung Gattung
total tief tief mittel hoch
Sa, 24.02. 7:00 1200 m 8/8 5/8 - - -
Sa, 24.02. 1:00 4500 m 8/8 8/8 - - -
Fr, 23.02. 19:00 1500 m 1/8 1/8 - - -
Fr, 23.02. 13:00 1500 m 5/8 5/8 - - -
Fr, 23.02. 7:00 810 m 4/8 4/8 - - -
Fr, 23.02. 1:00 690 m 4/8 4/8 - - -
Do, 22.02. 19:00 810 m 7/8 7/8 - - -
Do, 22.02. 13:00 810 m 7/8 7/8 - - -
Ortszeit Bedeckungsgrad in Achtel und Wolkenuntergrenze
Sa, 24.02. 12:00 4(810m) 7(1050m) 8(1500m)
Sa, 24.02. 11:50 4(810m) 7(1050m) 8(1500m)
Sa, 24.02. 11:40 7
Sa, 24.02. 11:30 6(780m) 7(930m)
Sa, 24.02. 11:20 6(780m) 7(930m)
Sa, 24.02. 11:10 7
Sa, 24.02. 11:00 6(720m) 7(840m) 8(1020m)
Sa, 24.02. 10:30 7(690m) 8(3300m) 8(3900m)
Sa, 24.02. 10:00 4(570m) 8(3000m) 8(3900m)
Sa, 24.02. 9:30 2(930m) 7(1800m) 8(3000m)
Sa, 24.02. 9:00 2(1200m) 7(1500m) 8(1800m)
Ortszeit Luftdruck NN (hPa) Tendenz (hPa in 3 Std.)
Sa, 24.02. 7:00 998 + 1,0
Sa, 24.02. 1:00 997 + 0,1
Fr, 23.02. 19:00 995 + 0,2
Fr, 23.02. 13:00 995 + 0,5
Fr, 23.02. 7:00 994 + 0,1
Fr, 23.02. 1:00 991 + 5,4
Do, 22.02. 19:00 982 - 3,3
Do, 22.02. 13:00 991 - 4,0
Ortszeit Luftdruck NN (hPa) Tendenz (hPa in 3 Std.)
Sa, 24.02. 12:00 1002 + 2,7
Sa, 24.02. 11:50 1002 keine Meldung
Sa, 24.02. 11:40 1002 keine Meldung
Sa, 24.02. 11:30 1001 + 2,5
Sa, 24.02. 11:20 1001 keine Meldung
Sa, 24.02. 11:10 1001 keine Meldung
Sa, 24.02. 11:00 1001 + 2,6
Sa, 24.02. 10:30 1000 + 2,5
Sa, 24.02. 10:00 1000 + 2,3
Sa, 24.02. 9:30 999 + 1,9
Sa, 24.02. 9:00 999 + 1,7
Ortszeit Schneehöhe (cm)
Sa, 24.02. 7:00 0
Sa, 24.02. 1:00 0
Fr, 23.02. 19:00 0
Fr, 23.02. 13:00 0
Fr, 23.02. 7:00 0
Fr, 23.02. 1:00 0
Do, 22.02. 19:00 0
Do, 22.02. 13:00 0
Ortszeit Schneehöhe (cm)
Sa, 24.02. 12:00 0
Sa, 24.02. 11:50 0
Sa, 24.02. 11:40 -
Sa, 24.02. 11:30 0
Sa, 24.02. 11:20 0
Sa, 24.02. 11:10 -
Sa, 24.02. 11:00 0
Sa, 24.02. 10:30 0
Sa, 24.02. 10:00 0
Sa, 24.02. 9:30 0
Sa, 24.02. 9:00 0
Link zu dieser Seite / Seite empfehlen

Das Wetter in ...